Los Angeles, CA (90016)

9:18 AM PDT on October 25, 2014 (GMT -0700)
CBS Radio, Venice and Fairfax | Change Station
CLOSE
Current Station
Personal Weather Station
Location: Los Angeles, CA
Elevation: 97 ft
Nearby Weather Stations
Active Advisory: Beach Hazard Statement Active Notice: Record Report

Elev 97 ft 34.04 °N, 118.37 °W | Updated 3 minutes ago

Mostly Cloudy
Mostly Cloudy
68.3 °F
Feels Like 68.3 °F
N
0.0
Wind Variable Wind from WNW
Gusts 0.0 mph

Today
High -- | Low -- °F
--% Chance of Precip.
Yesterday
High -- | Low -- °F
Precip. -- in
7:06 AM 6:07 PM
Waxing Crescent, 3% visible
Pressure 30.04 in
Visibility 10.0 miles
Clouds Scattered Clouds 9500 ft
Dew Point 60 °F
Humidity 75%
Rainfall 0.00 in
Snow Depth Not available.
UV 1 out of 12
Pollen 3.80 out of 12
Ozone Good
Flu Activity Sporadic
METAR KSMO 251551Z 00000KT 10SM SCT095 21/12 A3004 RMK AO2 SLP171 T02060117 $

More Conditions Fewer Conditions

Pressure 30.04 in
Visibility 10.0 miles
Clouds Scattered Clouds 9500 ft
Dew Point 60 °F
Humidity 75%
Rainfall 0.00 in
Snow Depth Not available.
UV 1 out of 12
Pollen 3.80 out of 12
Ozone Good
Flu Activity Sporadic
METAR KSMO 251551Z 00000KT 10SM SCT095 21/12 A3004 RMK AO2 SLP171 T02060117 $

More Conditions Fewer Conditions

10-Day Weather Forecast

Almanac

Astronomy

Oct. 25, 2014 Rise Set
Actual Time 7:06 AM PDT 6:07 PM PDT
Civil Twilight 6:41 AM PDT 6:33 PM PDT
Nautical Twilight 6:11 AM PDT 7:02 PM PDT
Astronomical Twilight 5:42 AM PDT 7:31 PM PDT
Moon 8:47 AM PDT 7:38 PM PDT
Length of Visible Light 11h 51m
Length of Day
11h 00m
Tomorrow will be 1m 55s shorter.
Waxing Crescent, 3% of the Moon is Illuminated
Today
Waxing Crescent
Oct 30
First Quarter
Nov 6
Full
Nov 14
Last Quarter
Nov 22
New

Today's Extremes

State Highs State Lows

Community

WunderPhotos

Upload Photos

1,764,887 photos uploaded!

Nearby

Air Quality

  Air Quality AQ Index Pollutant
Yesterday Moderate
OZONE
Current Good
OZONE
Sunday Good
PM10
Sunday Good
OZONE
Sunday Good
CO
Sunday Good
NO2

Snow Depth

Station Depth Elevation
Virginia Lakes Ridge 0 in 9200 ft
Leavitt Lake 1 in 9400 ft
Sonora Pass 0 in 8800 ft
Leavitt Meadows 1 in 7200 ft
Summit Meadow 1 in 9122 ft

Earthquake Activity

City Distance Mag. Time & Date
Running Springs, California 77 miles 3.1 4:07 AM PDT
2014-10-25
Brea, California 26 miles 2.9 3:35 PM PDT
2014-10-23
Brea, California 27 miles 2.8 3:34 PM PDT
2014-10-23
Corona, California 41 miles 2.5 1:09 PM PDT
2014-10-23
Minimum magnitude displayed is 2.5.

Coastal Water Temperatures

Place Temperature
Santa Monica Pier 68.0 °F
Los Angeles, CA 69.1 °F
La Jolla, CA 70.0 °F

Nearby Weather Stations